sensor_id;sensor_type;location;lat;lon;timestamp;P1;durP1;ratioP1;P2;durP2;ratioP2
9844;SDS011;4961;50.782;6.080;2022-08-19T00:01:53;13.47;;;12.37;;
9844;SDS011;4961;50.782;6.080;2022-08-19T00:04:26;12.90;;;11.80;;
9844;SDS011;4961;50.782;6.080;2022-08-19T00:06:58;13.23;;;12.13;;
9844;SDS011;4961;50.782;6.080;2022-08-19T00:09:28;13.23;;;12.03;;
9844;SDS011;4961;50.782;6.080;2022-08-19T00:11:57;13.67;;;12.57;;
9844;SDS011;4961;50.782;6.080;2022-08-19T00:14:26;13.70;;;12.50;;
9844;SDS011;4961;50.782;6.080;2022-08-19T00:16:58;13.47;;;12.27;;
9844;SDS011;4961;50.782;6.080;2022-08-19T00:19:27;14.03;;;12.93;;
9844;SDS011;4961;50.782;6.080;2022-08-19T00:21:56;12.73;;;11.73;;
9844;SDS011;4961;50.782;6.080;2022-08-19T00:24:24;13.40;;;12.40;;
9844;SDS011;4961;50.782;6.080;2022-08-19T00:26:56;12.93;;;11.87;;
9844;SDS011;4961;50.782;6.080;2022-08-19T00:29:45;13.40;;;11.87;;
9844;SDS011;4961;50.782;6.080;2022-08-19T00:32:18;13.27;;;11.70;;
9844;SDS011;4961;50.782;6.080;2022-08-19T00:34:47;13.80;;;12.70;;
9844;SDS011;4961;50.782;6.080;2022-08-19T00:37:15;13.83;;;12.70;;
9844;SDS011;4961;50.782;6.080;2022-08-19T00:39:44;13.97;;;12.70;;
9844;SDS011;4961;50.782;6.080;2022-08-19T00:42:16;13.90;;;12.80;;
9844;SDS011;4961;50.782;6.080;2022-08-19T00:44:45;15.57;;;14.10;;
9844;SDS011;4961;50.782;6.080;2022-08-19T00:47:13;15.33;;;13.93;;
9844;SDS011;4961;50.782;6.080;2022-08-19T00:49:45;16.30;;;14.87;;
9844;SDS011;4961;50.782;6.080;2022-08-19T00:52:18;16.77;;;15.27;;
9844;SDS011;4961;50.782;6.080;2022-08-19T00:54:49;16.27;;;14.87;;
9844;SDS011;4961;50.782;6.080;2022-08-19T00:57:26;17.67;;;16.07;;
9844;SDS011;4961;50.782;6.080;2022-08-19T00:59:58;16.80;;;15.30;;
9844;SDS011;4961;50.782;6.080;2022-08-19T01:02:29;15.97;;;14.63;;
9844;SDS011;4961;50.782;6.080;2022-08-19T01:05:00;16.53;;;15.07;;
9844;SDS011;4961;50.782;6.080;2022-08-19T01:07:32;15.07;;;13.87;;
9844;SDS011;4961;50.782;6.080;2022-08-19T01:10:04;14.57;;;13.27;;
9844;SDS011;4961;50.782;6.080;2022-08-19T01:12:36;14.00;;;12.80;;
9844;SDS011;4961;50.782;6.080;2022-08-19T01:15:06;15.07;;;13.70;;
9844;SDS011;4961;50.782;6.080;2022-08-19T01:17:39;15.27;;;13.97;;
9844;SDS011;4961;50.782;6.080;2022-08-19T01:20:10;15.77;;;14.20;;
9844;SDS011;4961;50.782;6.080;2022-08-19T01:22:43;15.43;;;14.03;;
9844;SDS011;4961;50.782;6.080;2022-08-19T01:25:14;15.37;;;13.97;;
9844;SDS011;4961;50.782;6.080;2022-08-19T01:27:46;15.33;;;13.93;;
9844;SDS011;4961;50.782;6.080;2022-08-19T01:30:20;13.20;;;12.10;;
9844;SDS011;4961;50.782;6.080;2022-08-19T01:32:50;15.20;;;13.80;;
9844;SDS011;4961;50.782;6.080;2022-08-19T01:35:20;14.33;;;13.17;;
9844;SDS011;4961;50.782;6.080;2022-08-19T01:37:53;13.23;;;12.03;;
9844;SDS011;4961;50.782;6.080;2022-08-19T01:40:23;13.70;;;12.40;;
9844;SDS011;4961;50.782;6.080;2022-08-19T01:42:53;12.90;;;11.77;;
9844;SDS011;4961;50.782;6.080;2022-08-19T01:45:24;15.20;;;13.60;;
9844;SDS011;4961;50.782;6.080;2022-08-19T01:47:54;12.20;;;11.40;;
9844;SDS011;4961;50.782;6.080;2022-08-19T01:50:27;13.43;;;12.33;;
9844;SDS011;4961;50.782;6.080;2022-08-19T01:52:58;12.60;;;11.60;;
9844;SDS011;4961;50.782;6.080;2022-08-19T01:55:33;12.40;;;11.30;;
9844;SDS011;4961;50.782;6.080;2022-08-19T01:58:07;12.13;;;11.13;;
9844;SDS011;4961;50.782;6.080;2022-08-19T02:00:38;12.13;;;11.10;;
9844;SDS011;4961;50.782;6.080;2022-08-19T02:03:06;11.50;;;10.57;;
9844;SDS011;4961;50.782;6.080;2022-08-19T02:05:35;11.87;;;10.87;;
9844;SDS011;4961;50.782;6.080;2022-08-19T02:08:05;13.17;;;11.97;;
9844;SDS011;4961;50.782;6.080;2022-08-19T02:10:33;12.70;;;11.60;;
9844;SDS011;4961;50.782;6.080;2022-08-19T02:13:07;12.33;;;11.27;;
9844;SDS011;4961;50.782;6.080;2022-08-19T02:15:36;14.27;;;12.97;;
9844;SDS011;4961;50.782;6.080;2022-08-19T02:18:05;13.47;;;12.30;;
9844;SDS011;4961;50.782;6.080;2022-08-19T02:20:34;13.77;;;12.57;;
9844;SDS011;4961;50.782;6.080;2022-08-19T02:23:05;13.83;;;12.43;;
9844;SDS011;4961;50.782;6.080;2022-08-19T02:25:41;16.07;;;14.67;;
9844;SDS011;4961;50.782;6.080;2022-08-19T02:28:10;17.80;;;16.03;;
9844;SDS011;4961;50.782;6.080;2022-08-19T02:30:44;18.43;;;16.73;;
9844;SDS011;4961;50.782;6.080;2022-08-19T02:33:13;19.10;;;17.20;;
9844;SDS011;4961;50.782;6.080;2022-08-19T02:35:42;19.57;;;17.63;;
9844;SDS011;4961;50.782;6.080;2022-08-19T02:38:12;18.00;;;16.20;;
9844;SDS011;4961;50.782;6.080;2022-08-19T02:40:53;20.23;;;18.10;;
9844;SDS011;4961;50.782;6.080;2022-08-19T02:43:23;20.67;;;18.77;;
9844;SDS011;4961;50.782;6.080;2022-08-19T02:45:53;19.83;;;17.97;;
9844;SDS011;4961;50.782;6.080;2022-08-19T02:48:22;19.53;;;17.73;;
9844;SDS011;4961;50.782;6.080;2022-08-19T02:50:52;21.57;;;19.43;;
9844;SDS011;4961;50.782;6.080;2022-08-19T02:53:24;20.33;;;18.43;;
9844;SDS011;4961;50.782;6.080;2022-08-19T02:55:54;22.10;;;19.90;;
9844;SDS011;4961;50.782;6.080;2022-08-19T02:58:23;19.47;;;17.67;;
9844;SDS011;4961;50.782;6.080;2022-08-19T03:00:54;19.00;;;17.20;;
9844;SDS011;4961;50.782;6.080;2022-08-19T03:03:23;19.27;;;17.33;;
9844;SDS011;4961;50.782;6.080;2022-08-19T03:06:01;19.23;;;17.33;;
9844;SDS011;4961;50.782;6.080;2022-08-19T03:08:33;18.77;;;17.00;;
9844;SDS011;4961;50.782;6.080;2022-08-19T03:11:01;18.83;;;17.10;;
9844;SDS011;4961;50.782;6.080;2022-08-19T03:13:30;19.77;;;17.73;;
9844;SDS011;4961;50.782;6.080;2022-08-19T03:15:58;19.80;;;18.00;;
9844;SDS011;4961;50.782;6.080;2022-08-19T03:18:27;19.43;;;17.67;;
9844;SDS011;4961;50.782;6.080;2022-08-19T03:20:55;20.70;;;18.57;;
9844;SDS011;4961;50.782;6.080;2022-08-19T03:23:24;22.70;;;20.43;;
9844;SDS011;4961;50.782;6.080;2022-08-19T03:25:53;24.73;;;22.13;;
9844;SDS011;4961;50.782;6.080;2022-08-19T03:28:42;27.93;;;24.57;;
9844;SDS011;4961;50.782;6.080;2022-08-19T03:31:18;33.03;;;24.77;;
9844;SDS011;4961;50.782;6.080;2022-08-19T03:34:09;26.80;;;24.07;;
9844;SDS011;4961;50.782;6.080;2022-08-19T03:36:38;24.97;;;22.47;;
9844;SDS011;4961;50.782;6.080;2022-08-19T03:39:07;23.70;;;21.33;;
9844;SDS011;4961;50.782;6.080;2022-08-19T03:41:38;25.80;;;23.17;;
9844;SDS011;4961;50.782;6.080;2022-08-19T03:44:11;26.97;;;24.03;;
9844;SDS011;4961;50.782;6.080;2022-08-19T03:46:44;28.93;;;25.90;;
9844;SDS011;4961;50.782;6.080;2022-08-19T03:49:13;29.20;;;25.73;;
9844;SDS011;4961;50.782;6.080;2022-08-19T03:51:44;30.07;;;26.77;;
9844;SDS011;4961;50.782;6.080;2022-08-19T03:54:15;28.27;;;25.37;;
9844;SDS011;4961;50.782;6.080;2022-08-19T03:56:47;28.53;;;25.43;;
9844;SDS011;4961;50.782;6.080;2022-08-19T03:59:19;29.03;;;25.90;;
9844;SDS011;4961;50.782;6.080;2022-08-19T04:01:52;28.93;;;25.70;;
9844;SDS011;4961;50.782;6.080;2022-08-19T04:04:21;31.00;;;26.50;;
9844;SDS011;4961;50.782;6.080;2022-08-19T04:06:54;28.57;;;25.57;;
9844;SDS011;4961;50.782;6.080;2022-08-19T04:09:23;30.33;;;26.10;;
9844;SDS011;4961;50.782;6.080;2022-08-19T04:11:54;29.60;;;26.47;;
9844;SDS011;4961;50.782;6.080;2022-08-19T04:14:24;29.03;;;25.87;;
9844;SDS011;4961;50.782;6.080;2022-08-19T04:16:54;34.23;;;28.37;;
9844;SDS011;4961;50.782;6.080;2022-08-19T04:19:23;31.90;;;27.30;;
9844;SDS011;4961;50.782;6.080;2022-08-19T04:21:52;36.27;;;30.30;;
9844;SDS011;4961;50.782;6.080;2022-08-19T04:24:21;32.97;;;27.47;;
9844;SDS011;4961;50.782;6.080;2022-08-19T04:26:50;35.97;;;28.90;;
9844;SDS011;4961;50.782;6.080;2022-08-19T04:29:22;38.00;;;30.07;;
9844;SDS011;4961;50.782;6.080;2022-08-19T04:31:53;35.67;;;28.17;;
9844;SDS011;4961;50.782;6.080;2022-08-19T04:34:23;35.50;;;28.50;;
9844;SDS011;4961;50.782;6.080;2022-08-19T04:36:53;40.70;;;32.23;;
9844;SDS011;4961;50.782;6.080;2022-08-19T04:39:24;36.57;;;30.80;;
9844;SDS011;4961;50.782;6.080;2022-08-19T04:42:16;40.63;;;32.47;;
9844;SDS011;4961;50.782;6.080;2022-08-19T04:45:02;40.73;;;31.57;;
9844;SDS011;4961;50.782;6.080;2022-08-19T04:47:34;39.23;;;30.70;;
9844;SDS011;4961;50.782;6.080;2022-08-19T04:50:23;46.33;;;31.27;;
9844;SDS011;4961;50.782;6.080;2022-08-19T04:52:51;42.93;;;32.13;;
9844;SDS011;4961;50.782;6.080;2022-08-19T04:55:22;44.93;;;31.90;;
9844;SDS011;4961;50.782;6.080;2022-08-19T04:57:53;40.83;;;31.17;;
9844;SDS011;4961;50.782;6.080;2022-08-19T05:00:22;41.90;;;32.40;;
9844;SDS011;4961;50.782;6.080;2022-08-19T05:02:50;45.53;;;33.13;;
9844;SDS011;4961;50.782;6.080;2022-08-19T05:05:19;42.60;;;33.27;;
9844;SDS011;4961;50.782;6.080;2022-08-19T05:07:53;45.97;;;34.70;;
9844;SDS011;4961;50.782;6.080;2022-08-19T05:10:27;46.80;;;33.40;;
9844;SDS011;4961;50.782;6.080;2022-08-19T05:12:58;45.43;;;34.43;;
9844;SDS011;4961;50.782;6.080;2022-08-19T05:15:26;45.70;;;33.90;;
9844;SDS011;4961;50.782;6.080;2022-08-19T05:17:54;48.70;;;35.63;;
9844;SDS011;4961;50.782;6.080;2022-08-19T05:20:40;48.37;;;35.07;;
9844;SDS011;4961;50.782;6.080;2022-08-19T05:23:25;47.27;;;34.00;;
9844;SDS011;4961;50.782;6.080;2022-08-19T05:25:54;44.53;;;34.13;;
9844;SDS011;4961;50.782;6.080;2022-08-19T05:28:23;49.57;;;36.03;;
9844;SDS011;4961;50.782;6.080;2022-08-19T05:30:52;50.63;;;35.70;;
9844;SDS011;4961;50.782;6.080;2022-08-19T05:33:22;46.83;;;33.37;;
9844;SDS011;4961;50.782;6.080;2022-08-19T05:35:50;49.00;;;33.87;;
9844;SDS011;4961;50.782;6.080;2022-08-19T05:38:19;44.57;;;33.50;;
9844;SDS011;4961;50.782;6.080;2022-08-19T05:40:47;44.17;;;32.07;;
9844;SDS011;4961;50.782;6.080;2022-08-19T05:43:16;46.27;;;32.70;;
9844;SDS011;4961;50.782;6.080;2022-08-19T05:45:45;46.10;;;34.73;;
9844;SDS011;4961;50.782;6.080;2022-08-19T05:48:14;46.90;;;34.60;;
9844;SDS011;4961;50.782;6.080;2022-08-19T05:50:46;43.83;;;33.97;;
9844;SDS011;4961;50.782;6.080;2022-08-19T05:53:16;43.17;;;32.53;;
9844;SDS011;4961;50.782;6.080;2022-08-19T05:55:45;44.60;;;32.57;;
9844;SDS011;4961;50.782;6.080;2022-08-19T05:58:13;42.57;;;30.77;;
9844;SDS011;4961;50.782;6.080;2022-08-19T06:00:42;42.17;;;31.70;;
9844;SDS011;4961;50.782;6.080;2022-08-19T06:03:12;32.63;;;26.00;;
9844;SDS011;4961;50.782;6.080;2022-08-19T06:05:41;35.47;;;26.50;;
9844;SDS011;4961;50.782;6.080;2022-08-19T06:08:17;33.30;;;26.77;;
9844;SDS011;4961;50.782;6.080;2022-08-19T06:13:51;31.87;;;24.00;;
9844;SDS011;4961;50.782;6.080;2022-08-19T06:16:25;26.47;;;21.83;;
9844;SDS011;4961;50.782;6.080;2022-08-19T06:18:56;26.47;;;21.60;;
9844;SDS011;4961;50.782;6.080;2022-08-19T06:21:27;28.30;;;20.47;;
9844;SDS011;4961;50.782;6.080;2022-08-19T06:23:57;29.40;;;22.53;;
9844;SDS011;4961;50.782;6.080;2022-08-19T06:26:27;28.30;;;22.50;;
9844;SDS011;4961;50.782;6.080;2022-08-19T06:28:55;29.13;;;22.57;;
9844;SDS011;4961;50.782;6.080;2022-08-19T06:31:25;26.73;;;22.50;;
9844;SDS011;4961;50.782;6.080;2022-08-19T06:33:54;26.87;;;22.33;;
9844;SDS011;4961;50.782;6.080;2022-08-19T06:36:25;29.93;;;24.43;;
9844;SDS011;4961;50.782;6.080;2022-08-19T06:38:58;25.00;;;21.77;;
9844;SDS011;4961;50.782;6.080;2022-08-19T06:41:27;28.43;;;22.33;;
9844;SDS011;4961;50.782;6.080;2022-08-19T06:43:56;29.73;;;22.17;;
9844;SDS011;4961;50.782;6.080;2022-08-19T06:46:25;23.70;;;21.00;;
9844;SDS011;4961;50.782;6.080;2022-08-19T06:48:54;30.97;;;23.60;;
9844;SDS011;4961;50.782;6.080;2022-08-19T06:51:24;22.53;;;18.87;;
9844;SDS011;4961;50.782;6.080;2022-08-19T06:53:57;21.13;;;16.63;;
9844;SDS011;4961;50.782;6.080;2022-08-19T06:56:26;20.33;;;16.23;;
9844;SDS011;4961;50.782;6.080;2022-08-19T06:58:58;20.57;;;16.10;;
9844;SDS011;4961;50.782;6.080;2022-08-19T07:01:26;22.63;;;18.33;;
9844;SDS011;4961;50.782;6.080;2022-08-19T07:03:55;25.70;;;21.03;;
9844;SDS011;4961;50.782;6.080;2022-08-19T07:06:25;27.50;;;20.07;;
9844;SDS011;4961;50.782;6.080;2022-08-19T07:09:11;27.27;;;21.07;;
9844;SDS011;4961;50.782;6.080;2022-08-19T07:11:44;27.27;;;21.53;;
9844;SDS011;4961;50.782;6.080;2022-08-19T07:14:14;30.87;;;23.07;;
9844;SDS011;4961;50.782;6.080;2022-08-19T07:16:46;28.50;;;21.83;;
9844;SDS011;4961;50.782;6.080;2022-08-19T07:19:16;34.00;;;26.13;;
9844;SDS011;4961;50.782;6.080;2022-08-19T07:21:47;37.33;;;26.90;;
9844;SDS011;4961;50.782;6.080;2022-08-19T07:24:17;35.07;;;27.67;;
9844;SDS011;4961;50.782;6.080;2022-08-19T07:26:46;36.57;;;28.03;;
9844;SDS011;4961;50.782;6.080;2022-08-19T07:29:17;36.83;;;27.37;;
9844;SDS011;4961;50.782;6.080;2022-08-19T07:31:53;37.07;;;27.63;;
9844;SDS011;4961;50.782;6.080;2022-08-19T07:34:26;35.67;;;27.90;;
9844;SDS011;4961;50.782;6.080;2022-08-19T07:36:56;40.60;;;30.33;;
9844;SDS011;4961;50.782;6.080;2022-08-19T07:39:27;36.33;;;28.40;;
9844;SDS011;4961;50.782;6.080;2022-08-19T07:42:00;45.63;;;32.57;;
9844;SDS011;4961;50.782;6.080;2022-08-19T07:44:32;41.83;;;32.00;;
9844;SDS011;4961;50.782;6.080;2022-08-19T07:47:02;43.23;;;31.07;;
9844;SDS011;4961;50.782;6.080;2022-08-19T07:49:31;40.63;;;31.00;;
9844;SDS011;4961;50.782;6.080;2022-08-19T07:52:03;35.77;;;28.80;;
9844;SDS011;4961;50.782;6.080;2022-08-19T07:54:35;35.33;;;26.93;;
9844;SDS011;4961;50.782;6.080;2022-08-19T07:57:05;34.10;;;25.10;;
9844;SDS011;4961;50.782;6.080;2022-08-19T07:59:34;32.33;;;26.50;;
9844;SDS011;4961;50.782;6.080;2022-08-19T08:02:02;38.60;;;27.20;;
9844;SDS011;4961;50.782;6.080;2022-08-19T08:04:31;36.93;;;26.90;;
9844;SDS011;4961;50.782;6.080;2022-08-19T08:07:19;36.00;;;26.43;;
9844;SDS011;4961;50.782;6.080;2022-08-19T08:10:11;35.13;;;26.23;;
9844;SDS011;4961;50.782;6.080;2022-08-19T08:12:46;36.63;;;26.93;;
9844;SDS011;4961;50.782;6.080;2022-08-19T08:15:35;27.70;;;24.63;;
9844;SDS011;4961;50.782;6.080;2022-08-19T08:18:08;38.60;;;29.53;;
9844;SDS011;4961;50.782;6.080;2022-08-19T08:20:39;34.47;;;28.50;;
9844;SDS011;4961;50.782;6.080;2022-08-19T08:23:09;39.70;;;30.43;;
9844;SDS011;4961;50.782;6.080;2022-08-19T08:25:52;36.50;;;29.23;;
9844;SDS011;4961;50.782;6.080;2022-08-19T08:28:23;34.07;;;29.90;;
9844;SDS011;4961;50.782;6.080;2022-08-19T08:30:55;36.50;;;31.33;;
9844;SDS011;4961;50.782;6.080;2022-08-19T08:33:25;35.07;;;30.30;;
9844;SDS011;4961;50.782;6.080;2022-08-19T08:36:00;35.83;;;31.17;;
9844;SDS011;4961;50.782;6.080;2022-08-19T08:38:31;34.77;;;29.13;;
9844;SDS011;4961;50.782;6.080;2022-08-19T08:41:07;33.63;;;30.00;;
9844;SDS011;4961;50.782;6.080;2022-08-19T08:43:46;36.70;;;31.10;;
9844;SDS011;4961;50.782;6.080;2022-08-19T08:46:19;39.50;;;32.20;;
9844;SDS011;4961;50.782;6.080;2022-08-19T08:48:57;38.50;;;30.23;;
9844;SDS011;4961;50.782;6.080;2022-08-19T08:51:33;39.63;;;30.67;;
9844;SDS011;4961;50.782;6.080;2022-08-19T08:54:10;35.97;;;31.30;;
9844;SDS011;4961;50.782;6.080;2022-08-19T08:56:40;38.20;;;31.33;;
9844;SDS011;4961;50.782;6.080;2022-08-19T08:59:12;35.43;;;29.73;;
9844;SDS011;4961;50.782;6.080;2022-08-19T09:01:47;35.83;;;30.37;;
9844;SDS011;4961;50.782;6.080;2022-08-19T09:04:16;36.57;;;31.27;;
9844;SDS011;4961;50.782;6.080;2022-08-19T09:06:48;37.80;;;32.20;;
9844;SDS011;4961;50.782;6.080;2022-08-19T09:09:26;35.27;;;28.47;;
9844;SDS011;4961;50.782;6.080;2022-08-19T09:12:00;36.73;;;29.33;;
9844;SDS011;4961;50.782;6.080;2022-08-19T09:14:40;34.37;;;29.07;;
9844;SDS011;4961;50.782;6.080;2022-08-19T09:17:18;34.13;;;29.77;;
9844;SDS011;4961;50.782;6.080;2022-08-19T09:19:58;31.17;;;26.53;;
9844;SDS011;4961;50.782;6.080;2022-08-19T09:22:34;31.97;;;27.87;;
9844;SDS011;4961;50.782;6.080;2022-08-19T09:25:07;31.43;;;25.80;;
9844;SDS011;4961;50.782;6.080;2022-08-19T09:27:36;30.80;;;26.43;;
9844;SDS011;4961;50.782;6.080;2022-08-19T09:30:09;32.87;;;25.70;;
9844;SDS011;4961;50.782;6.080;2022-08-19T09:32:41;26.73;;;23.83;;
9844;SDS011;4961;50.782;6.080;2022-08-19T09:35:11;29.40;;;24.93;;
9844;SDS011;4961;50.782;6.080;2022-08-19T09:37:41;31.67;;;23.27;;
9844;SDS011;4961;50.782;6.080;2022-08-19T09:40:12;27.30;;;23.20;;
9844;SDS011;4961;50.782;6.080;2022-08-19T09:42:41;32.13;;;24.67;;
9844;SDS011;4961;50.782;6.080;2022-08-19T09:45:19;27.87;;;21.67;;
9844;SDS011;4961;50.782;6.080;2022-08-19T09:47:49;28.90;;;23.50;;
9844;SDS011;4961;50.782;6.080;2022-08-19T09:50:20;28.57;;;22.87;;
9844;SDS011;4961;50.782;6.080;2022-08-19T09:52:50;31.10;;;23.10;;
9844;SDS011;4961;50.782;6.080;2022-08-19T09:55:25;31.83;;;25.47;;
9844;SDS011;4961;50.782;6.080;2022-08-19T09:57:57;27.73;;;24.20;;
9844;SDS011;4961;50.782;6.080;2022-08-19T10:00:26;28.77;;;23.17;;
9844;SDS011;4961;50.782;6.080;2022-08-19T10:02:55;28.27;;;22.97;;
9844;SDS011;4961;50.782;6.080;2022-08-19T10:05:23;27.40;;;24.33;;
9844;SDS011;4961;50.782;6.080;2022-08-19T10:08:09;31.20;;;25.00;;
9844;SDS011;4961;50.782;6.080;2022-08-19T10:10:40;30.17;;;24.23;;
9844;SDS011;4961;50.782;6.080;2022-08-19T10:13:12;26.73;;;22.03;;
9844;SDS011;4961;50.782;6.080;2022-08-19T10:15:43;25.10;;;21.27;;
9844;SDS011;4961;50.782;6.080;2022-08-19T10:18:14;28.20;;;21.30;;
9844;SDS011;4961;50.782;6.080;2022-08-19T10:20:44;23.13;;;20.73;;
9844;SDS011;4961;50.782;6.080;2022-08-19T10:23:17;26.87;;;20.33;;
9844;SDS011;4961;50.782;6.080;2022-08-19T10:25:48;25.47;;;21.50;;
9844;SDS011;4961;50.782;6.080;2022-08-19T10:28:19;24.60;;;19.30;;
9844;SDS011;4961;50.782;6.080;2022-08-19T10:30:49;20.70;;;18.50;;
9844;SDS011;4961;50.782;6.080;2022-08-19T10:33:17;23.47;;;18.53;;
9844;SDS011;4961;50.782;6.080;2022-08-19T10:36:05;19.03;;;17.00;;
9844;SDS011;4961;50.782;6.080;2022-08-19T10:38:36;20.67;;;16.97;;
9844;SDS011;4961;50.782;6.080;2022-08-19T10:41:19;24.40;;;19.83;;
9844;SDS011;4961;50.782;6.080;2022-08-19T10:43:50;24.17;;;18.03;;
9844;SDS011;4961;50.782;6.080;2022-08-19T10:46:21;22.63;;;16.87;;
9844;SDS011;4961;50.782;6.080;2022-08-19T10:48:51;20.33;;;15.27;;
9844;SDS011;4961;50.782;6.080;2022-08-19T10:51:20;18.53;;;15.83;;
9844;SDS011;4961;50.782;6.080;2022-08-19T10:54:14;17.53;;;15.00;;
9844;SDS011;4961;50.782;6.080;2022-08-19T10:56:57;19.80;;;16.80;;
9844;SDS011;4961;50.782;6.080;2022-08-19T10:59:26;19.93;;;15.87;;
9844;SDS011;4961;50.782;6.080;2022-08-19T11:02:02;19.97;;;16.67;;
9844;SDS011;4961;50.782;6.080;2022-08-19T11:04:32;19.20;;;16.43;;
9844;SDS011;4961;50.782;6.080;2022-08-19T11:07:01;21.27;;;16.67;;
9844;SDS011;4961;50.782;6.080;2022-08-19T11:09:30;18.23;;;15.10;;
9844;SDS011;4961;50.782;6.080;2022-08-19T11:12:06;19.53;;;15.73;;
9844;SDS011;4961;50.782;6.080;2022-08-19T11:14:36;23.63;;;18.43;;
9844;SDS011;4961;50.782;6.080;2022-08-19T11:17:05;20.57;;;17.13;;
9844;SDS011;4961;50.782;6.080;2022-08-19T11:19:34;18.87;;;16.87;;
9844;SDS011;4961;50.782;6.080;2022-08-19T11:22:02;21.37;;;16.80;;
9844;SDS011;4961;50.782;6.080;2022-08-19T11:24:34;20.23;;;17.83;;
9844;SDS011;4961;50.782;6.080;2022-08-19T11:27:04;17.53;;;15.73;;
9844;SDS011;4961;50.782;6.080;2022-08-19T11:29:37;24.67;;;20.77;;
9844;SDS011;4961;50.782;6.080;2022-08-19T11:32:06;21.73;;;17.17;;
9844;SDS011;4961;50.782;6.080;2022-08-19T11:34:37;23.00;;;17.37;;
9844;SDS011;4961;50.782;6.080;2022-08-19T11:37:06;25.27;;;19.00;;
9844;SDS011;4961;50.782;6.080;2022-08-19T11:39:35;20.83;;;17.87;;
9844;SDS011;4961;50.782;6.080;2022-08-19T11:42:06;22.23;;;17.97;;
9844;SDS011;4961;50.782;6.080;2022-08-19T11:44:48;21.73;;;17.60;;
9844;SDS011;4961;50.782;6.080;2022-08-19T11:47:17;24.60;;;17.90;;
9844;SDS011;4961;50.782;6.080;2022-08-19T11:49:46;21.40;;;18.03;;
9844;SDS011;4961;50.782;6.080;2022-08-19T11:52:14;20.50;;;17.03;;
9844;SDS011;4961;50.782;6.080;2022-08-19T11:54:43;17.73;;;15.77;;
9844;SDS011;4961;50.782;6.080;2022-08-19T11:57:12;15.17;;;13.57;;
9844;SDS011;4961;50.782;6.080;2022-08-19T11:59:47;19.37;;;16.00;;
9844;SDS011;4961;50.782;6.080;2022-08-19T12:02:16;17.10;;;14.10;;
9844;SDS011;4961;50.782;6.080;2022-08-19T12:04:45;15.43;;;13.57;;
9844;SDS011;4961;50.782;6.080;2022-08-19T12:07:14;13.57;;;11.50;;
9844;SDS011;4961;50.782;6.080;2022-08-19T12:09:42;9.00;;;8.10;;
9844;SDS011;4961;50.782;6.080;2022-08-19T12:12:15;9.53;;;7.20;;
9844;SDS011;4961;50.782;6.080;2022-08-19T12:14:43;8.57;;;7.10;;
9844;SDS011;4961;50.782;6.080;2022-08-19T12:17:12;6.63;;;6.03;;
9844;SDS011;4961;50.782;6.080;2022-08-19T12:19:41;7.63;;;6.90;;
9844;SDS011;4961;50.782;6.080;2022-08-19T12:22:09;6.97;;;5.67;;
9844;SDS011;4961;50.782;6.080;2022-08-19T12:24:38;6.77;;;6.10;;
9844;SDS011;4961;50.782;6.080;2022-08-19T12:27:07;5.80;;;5.30;;
9844;SDS011;4961;50.782;6.080;2022-08-19T12:29:39;4.77;;;4.37;;
9844;SDS011;4961;50.782;6.080;2022-08-19T12:32:08;3.87;;;3.30;;
9844;SDS011;4961;50.782;6.080;2022-08-19T12:34:38;3.70;;;3.40;;
9844;SDS011;4961;50.782;6.080;2022-08-19T12:37:06;4.60;;;3.13;;
9844;SDS011;4961;50.782;6.080;2022-08-19T12:39:36;5.17;;;3.63;;
9844;SDS011;4961;50.782;6.080;2022-08-19T12:42:06;5.30;;;2.67;;
9844;SDS011;4961;50.782;6.080;2022-08-19T12:44:35;4.07;;;3.37;;
9844;SDS011;4961;50.782;6.080;2022-08-19T12:47:10;5.20;;;2.70;;
9844;SDS011;4961;50.782;6.080;2022-08-19T12:49:40;3.57;;;2.60;;
9844;SDS011;4961;50.782;6.080;2022-08-19T12:52:20;4.13;;;2.10;;
9844;SDS011;4961;50.782;6.080;2022-08-19T12:54:50;3.87;;;2.20;;
9844;SDS011;4961;50.782;6.080;2022-08-19T12:57:21;3.83;;;1.63;;
9844;SDS011;4961;50.782;6.080;2022-08-19T12:59:59;5.40;;;3.40;;
9844;SDS011;4961;50.782;6.080;2022-08-19T13:02:32;4.10;;;2.20;;
9844;SDS011;4961;50.782;6.080;2022-08-19T13:05:05;5.13;;;3.40;;
9844;SDS011;4961;50.782;6.080;2022-08-19T13:07:37;1.90;;;1.80;;
9844;SDS011;4961;50.782;6.080;2022-08-19T13:10:08;5.17;;;1.80;;
9844;SDS011;4961;50.782;6.080;2022-08-19T13:12:38;1.50;;;1.30;;
9844;SDS011;4961;50.782;6.080;2022-08-19T13:15:08;2.50;;;1.60;;
9844;SDS011;4961;50.782;6.080;2022-08-19T13:17:41;1.50;;;1.33;;
9844;SDS011;4961;50.782;6.080;2022-08-19T13:20:10;1.97;;;1.20;;
9844;SDS011;4961;50.782;6.080;2022-08-19T13:22:38;3.13;;;1.93;;
9844;SDS011;4961;50.782;6.080;2022-08-19T13:25:07;1.20;;;1.10;;
9844;SDS011;4961;50.782;6.080;2022-08-19T13:27:37;2.57;;;1.13;;
9844;SDS011;4961;50.782;6.080;2022-08-19T13:30:11;1.37;;;1.00;;
9844;SDS011;4961;50.782;6.080;2022-08-19T13:33:02;1.63;;;1.10;;
9844;SDS011;4961;50.782;6.080;2022-08-19T13:35:42;1.00;;;0.90;;
9844;SDS011;4961;50.782;6.080;2022-08-19T13:38:13;1.60;;;1.00;;
9844;SDS011;4961;50.782;6.080;2022-08-19T13:40:42;2.07;;;1.10;;
9844;SDS011;4961;50.782;6.080;2022-08-19T13:43:12;1.70;;;1.20;;
9844;SDS011;4961;50.782;6.080;2022-08-19T13:45:49;3.90;;;1.20;;
9844;SDS011;4961;50.782;6.080;2022-08-19T13:48:24;2.20;;;2.00;;
9844;SDS011;4961;50.782;6.080;2022-08-19T13:50:53;3.23;;;1.60;;
9844;SDS011;4961;50.782;6.080;2022-08-19T13:53:22;1.93;;;0.80;;
9844;SDS011;4961;50.782;6.080;2022-08-19T13:55:51;1.30;;;1.20;;
9844;SDS011;4961;50.782;6.080;2022-08-19T13:58:20;2.50;;;1.00;;
9844;SDS011;4961;50.782;6.080;2022-08-19T14:00:49;2.30;;;1.40;;
9844;SDS011;4961;50.782;6.080;2022-08-19T14:03:17;1.10;;;0.73;;
9844;SDS011;4961;50.782;6.080;2022-08-19T14:05:47;1.07;;;0.90;;
9844;SDS011;4961;50.782;6.080;2022-08-19T14:08:16;3.93;;;2.70;;
9844;SDS011;4961;50.782;6.080;2022-08-19T14:10:44;2.87;;;1.30;;
9844;SDS011;4961;50.782;6.080;2022-08-19T14:13:14;1.23;;;1.10;;
9844;SDS011;4961;50.782;6.080;2022-08-19T14:15:44;2.23;;;1.20;;
9844;SDS011;4961;50.782;6.080;2022-08-19T14:18:13;1.73;;;1.20;;
9844;SDS011;4961;50.782;6.080;2022-08-19T14:20:43;2.17;;;1.10;;
9844;SDS011;4961;50.782;6.080;2022-08-19T14:23:19;2.10;;;1.10;;
9844;SDS011;4961;50.782;6.080;2022-08-19T14:25:52;3.80;;;1.10;;
9844;SDS011;4961;50.782;6.080;2022-08-19T14:28:28;1.97;;;1.37;;
9844;SDS011;4961;50.782;6.080;2022-08-19T14:30:57;2.17;;;1.20;;
9844;SDS011;4961;50.782;6.080;2022-08-19T14:33:26;1.97;;;1.43;;
9844;SDS011;4961;50.782;6.080;2022-08-19T14:35:55;2.80;;;1.40;;
9844;SDS011;4961;50.782;6.080;2022-08-19T14:38:26;3.30;;;1.60;;
9844;SDS011;4961;50.782;6.080;2022-08-19T14:43:46;3.23;;;1.43;;
9844;SDS011;4961;50.782;6.080;2022-08-19T14:46:17;2.20;;;1.17;;
9844;SDS011;4961;50.782;6.080;2022-08-19T14:48:46;1.73;;;1.50;;
9844;SDS011;4961;50.782;6.080;2022-08-19T14:51:17;4.83;;;1.60;;
9844;SDS011;4961;50.782;6.080;2022-08-19T14:53:48;2.37;;;1.47;;
9844;SDS011;4961;50.782;6.080;2022-08-19T14:56:18;3.50;;;1.90;;
9844;SDS011;4961;50.782;6.080;2022-08-19T14:58:51;2.77;;;1.10;;
9844;SDS011;4961;50.782;6.080;2022-08-19T15:01:20;1.40;;;1.30;;
9844;SDS011;4961;50.782;6.080;2022-08-19T15:03:49;1.10;;;1.00;;
9844;SDS011;4961;50.782;6.080;2022-08-19T15:06:20;1.63;;;1.30;;
9844;SDS011;4961;50.782;6.080;2022-08-19T15:08:50;1.93;;;1.30;;
9844;SDS011;4961;50.782;6.080;2022-08-19T15:11:20;1.50;;;1.20;;
9844;SDS011;4961;50.782;6.080;2022-08-19T15:13:52;1.40;;;1.30;;
9844;SDS011;4961;50.782;6.080;2022-08-19T15:16:22;2.17;;;1.40;;
9844;SDS011;4961;50.782;6.080;2022-08-19T15:18:54;3.03;;;1.60;;
9844;SDS011;4961;50.782;6.080;2022-08-19T15:21:24;5.20;;;1.80;;
9844;SDS011;4961;50.782;6.080;2022-08-19T15:23:55;2.70;;;1.83;;
9844;SDS011;4961;50.782;6.080;2022-08-19T15:26:24;2.50;;;2.17;;